createdAt,value
2019-03-09T00:01:46.895Z,7.88
2019-03-09T00:04:17.047Z,7.73
2019-03-09T00:06:47.326Z,7.88
2019-03-09T00:09:20.537Z,7.84
2019-03-09T00:11:50.371Z,7.72
2019-03-09T00:14:20.821Z,7.72
2019-03-09T00:16:50.857Z,7.74
2019-03-09T00:19:21.317Z,7.85
2019-03-09T00:21:51.233Z,7.62
2019-03-09T00:24:36.824Z,7.94
2019-03-09T00:27:30.233Z,7.94
2019-03-09T00:30:26.709Z,8.02
2019-03-09T00:32:56.744Z,8.02
2019-03-09T00:35:26.780Z,7.85
2019-03-09T00:37:56.673Z,7.91
2019-03-09T00:40:26.714Z,8.07
2019-03-09T00:42:55.535Z,8.30
2019-03-09T00:45:25.181Z,8.42
2019-03-09T00:47:54.644Z,8.42
2019-03-09T00:50:24.686Z,8.30
2019-03-09T00:52:53.503Z,8.24
2019-03-09T00:55:23.112Z,8.45
2019-03-09T00:57:52.981Z,8.45
2019-03-09T01:00:22.829Z,8.53
2019-03-09T01:02:52.528Z,8.58
2019-03-09T01:05:21.812Z,8.38
2019-03-09T01:07:51.765Z,8.73
2019-03-09T01:10:21.355Z,8.99
2019-03-09T01:12:51.015Z,9.20
2019-03-09T01:15:20.738Z,8.91
2019-03-09T01:17:50.697Z,8.91
2019-03-09T01:20:20.477Z,8.95
2019-03-09T01:22:49.899Z,9.14
2019-03-09T01:25:19.661Z,9.33
2019-03-09T01:27:49.160Z,9.49
2019-03-09T01:30:20.170Z,9.34
2019-03-09T01:32:49.838Z,9.30
2019-03-09T01:35:19.549Z,9.50
2019-03-09T01:37:49.164Z,9.32
2019-03-09T01:40:18.705Z,9.32
2019-03-09T01:42:48.446Z,9.45
2019-03-09T01:45:18.167Z,9.76
2019-03-09T01:47:47.842Z,9.76
2019-03-09T01:50:17.886Z,9.60
2019-03-09T01:52:47.586Z,9.70
2019-03-09T01:55:16.785Z,9.75
2019-03-09T01:57:46.560Z,9.70
2019-03-09T02:00:18.748Z,9.84
2019-03-09T02:02:49.212Z,9.84
2019-03-09T02:05:19.110Z,9.82
2019-03-09T02:07:49.731Z,9.77
2019-03-09T02:10:19.308Z,9.75
2019-03-09T02:12:48.850Z,9.63
2019-03-09T02:15:18.544Z,9.63
2019-03-09T02:17:48.322Z,9.97
2019-03-09T02:20:18.449Z,9.97
2019-03-09T02:22:48.510Z,9.79
2019-03-09T02:25:18.756Z,9.94
2019-03-09T02:27:49.107Z,9.94
2019-03-09T02:30:19.756Z,10.33
2019-03-09T02:32:49.528Z,10.12
2019-03-09T02:35:19.763Z,9.97
2019-03-09T02:37:49.756Z,9.97
2019-03-09T02:40:23.204Z,10.10
2019-03-09T02:42:53.627Z,10.23
2019-03-09T02:45:24.605Z,10.01
2019-03-09T02:47:53.996Z,10.01
2019-03-09T02:50:24.176Z,10.37
2019-03-09T02:52:54.358Z,10.02
2019-03-09T02:55:24.472Z,10.09
2019-03-09T02:57:54.473Z,10.19
2019-03-09T03:00:24.663Z,10.19
2019-03-09T03:02:57.549Z,10.26
2019-03-09T03:05:27.719Z,10.30
2019-03-09T03:07:57.689Z,10.30
2019-03-09T03:10:26.685Z,10.40
2019-03-09T03:12:56.574Z,10.18
2019-03-09T03:15:32.305Z,10.10
2019-03-09T03:18:01.556Z,10.10
2019-03-09T03:20:32.675Z,10.14
2019-03-09T03:23:03.934Z,10.14
2019-03-09T03:25:33.571Z,10.20
2019-03-09T03:28:02.535Z,10.37
2019-03-09T03:30:32.586Z,10.33
2019-03-09T03:33:02.743Z,10.33
2019-03-09T03:35:32.860Z,10.39
2019-03-09T03:38:02.622Z,10.56
2019-03-09T03:40:32.431Z,10.77
2019-03-09T03:43:02.047Z,10.49
2019-03-09T03:45:32.112Z,10.49
2019-03-09T03:48:02.409Z,10.12
2019-03-09T03:50:32.518Z,10.26
2019-03-09T03:53:01.621Z,10.68
2019-03-09T03:55:31.339Z,10.48
2019-03-09T03:58:01.722Z,10.48
2019-03-09T04:00:32.031Z,10.62
2019-03-09T04:03:02.509Z,10.72
2019-03-09T04:05:32.063Z,10.83
2019-03-09T04:08:02.137Z,10.66
2019-03-09T04:10:47.058Z,10.46
2019-03-09T04:13:16.967Z,10.49
2019-03-09T04:15:46.516Z,10.19
2019-03-09T04:18:16.505Z,10.25
2019-03-09T04:20:46.714Z,10.25
2019-03-09T04:23:17.354Z,10.29
2019-03-09T04:25:47.703Z,10.28
2019-03-09T04:28:17.544Z,10.50
2019-03-09T04:30:47.809Z,10.42
2019-03-09T04:33:17.851Z,10.42
2019-03-09T04:35:48.031Z,10.84
2019-03-09T04:38:18.682Z,10.36
2019-03-09T04:40:48.703Z,10.58
2019-03-09T04:43:18.515Z,10.48
2019-03-09T04:45:49.455Z,10.53
2019-03-09T04:48:19.611Z,10.48
2019-03-09T04:50:48.839Z,10.48
2019-03-09T04:53:18.638Z,10.66
2019-03-09T04:55:47.464Z,10.83
2019-03-09T04:58:17.473Z,10.61
2019-03-09T05:00:46.445Z,10.31
2019-03-09T05:03:16.335Z,10.12
2019-03-09T05:05:45.876Z,10.12
2019-03-09T05:09:06.702Z,10.03
2019-03-09T05:11:35.504Z,10.44
2019-03-09T05:14:14.493Z,10.58
2019-03-09T05:16:44.421Z,10.18
2019-03-09T05:19:14.335Z,10.27
2019-03-09T05:21:44.641Z,10.27
2019-03-09T05:24:14.557Z,10.33
2019-03-09T05:26:45.090Z,10.26
2019-03-09T05:29:15.545Z,10.20
2019-03-09T05:31:45.321Z,10.31
2019-03-09T05:34:15.312Z,10.21
2019-03-09T05:36:45.024Z,10.21
2019-03-09T05:39:14.593Z,10.43
2019-03-09T05:41:44.775Z,9.95
2019-03-09T05:44:15.105Z,9.95
2019-03-09T05:46:44.875Z,9.58
2019-03-09T05:49:14.677Z,9.41
2019-03-09T05:52:05.523Z,9.40
2019-03-09T05:54:35.313Z,9.06
2019-03-09T05:57:05.714Z,9.06
2019-03-09T05:59:35.931Z,8.92
2019-03-09T06:02:06.176Z,8.80
2019-03-09T06:04:36.751Z,9.01
2019-03-09T06:07:07.526Z,8.87
2019-03-09T06:09:37.739Z,9.00
2019-03-09T06:12:08.174Z,8.97
2019-03-09T06:14:38.087Z,8.80
2019-03-09T06:17:08.537Z,9.01
2019-03-09T06:19:39.619Z,9.05
2019-03-09T06:22:12.634Z,8.97
2019-03-09T06:24:42.465Z,8.89
2019-03-09T06:27:13.562Z,9.27
2019-03-09T06:29:42.517Z,9.00
2019-03-09T06:33:28.050Z,9.43
2019-03-09T06:37:00.069Z,9.43
2019-03-09T06:39:50.103Z,9.45
2019-03-09T06:42:48.633Z,9.28
2019-03-09T06:45:19.918Z,9.43
2019-03-09T06:47:53.261Z,9.88
2019-03-09T06:50:26.330Z,10.06
2019-03-09T06:52:56.329Z,10.35
2019-03-09T06:55:26.157Z,10.13
2019-03-09T06:57:56.445Z,10.42
2019-03-09T07:00:39.013Z,10.38
2019-03-09T07:03:09.885Z,10.35
2019-03-09T07:05:39.677Z,9.95
2019-03-09T07:08:09.323Z,10.20
2019-03-09T07:10:38.814Z,10.60
2019-03-09T07:13:09.035Z,10.68
2019-03-09T07:15:44.919Z,10.17
2019-03-09T07:18:26.830Z,10.45
2019-03-09T07:20:58.316Z,10.50
2019-03-09T07:23:28.316Z,10.30
2019-03-09T07:25:58.329Z,10.79
2019-03-09T07:28:28.080Z,10.97
2019-03-09T07:30:57.814Z,11.04
2019-03-09T07:33:27.773Z,11.03
2019-03-09T07:35:57.874Z,11.09
2019-03-09T07:38:27.577Z,10.97
2019-03-09T07:40:56.682Z,11.31
2019-03-09T07:43:26.612Z,11.37
2019-03-09T07:46:00.668Z,11.43
2019-03-09T07:48:30.535Z,11.33
2019-03-09T07:51:00.323Z,12.06
2019-03-09T07:53:35.456Z,12.06
2019-03-09T07:56:06.332Z,12.00
2019-03-09T07:58:37.145Z,12.11
2019-03-09T08:01:08.647Z,12.09
2019-03-09T08:03:37.564Z,12.31
2019-03-09T08:06:08.301Z,11.96
2019-03-09T08:08:38.353Z,11.96
2019-03-09T08:11:07.859Z,12.07
2019-03-09T08:13:37.527Z,12.01
2019-03-09T08:16:07.924Z,12.02
2019-03-09T08:18:37.829Z,11.74
2019-03-09T08:21:08.649Z,11.75
2019-03-09T08:23:39.154Z,12.34
2019-03-09T08:26:08.901Z,12.78
2019-03-09T08:28:38.816Z,13.58
2019-03-09T08:31:08.530Z,13.47
2019-03-09T08:33:38.497Z,13.30
2019-03-09T08:36:08.097Z,13.30
2019-03-09T08:38:37.886Z,13.55
2019-03-09T08:41:07.808Z,13.75
2019-03-09T08:43:37.727Z,13.80
2019-03-09T08:46:07.952Z,13.49
2019-03-09T08:48:38.079Z,13.56
2019-03-09T08:51:07.970Z,13.34
2019-03-09T08:53:37.703Z,13.52
2019-03-09T08:56:08.519Z,13.85
2019-03-09T08:58:39.753Z,13.08
2019-03-09T09:01:08.562Z,13.08
2019-03-09T09:03:37.950Z,13.31
2019-03-09T09:06:08.862Z,13.47
2019-03-09T09:08:38.515Z,13.73
2019-03-09T09:11:08.317Z,13.26
2019-03-09T09:13:38.564Z,13.26
2019-03-09T09:16:08.599Z,12.87
2019-03-09T09:18:39.793Z,13.56
2019-03-09T09:21:09.823Z,13.12
2019-03-09T09:23:39.582Z,13.02
2019-03-09T09:26:08.266Z,13.20
2019-03-09T09:28:38.301Z,13.35
2019-03-09T09:31:07.834Z,13.35
2019-03-09T09:33:37.492Z,13.40
2019-03-09T09:36:08.778Z,13.03
2019-03-09T09:38:38.601Z,13.03
2019-03-09T09:41:07.509Z,13.32
2019-03-09T09:43:37.514Z,13.42
2019-03-09T09:46:07.432Z,13.15
2019-03-09T09:48:37.314Z,13.18
2019-03-09T09:51:07.473Z,13.18
2019-03-09T09:53:36.706Z,12.87
2019-03-09T09:56:06.563Z,12.95
2019-03-09T09:58:36.075Z,13.01
2019-03-09T10:02:41.745Z,13.38
2019-03-09T10:05:11.867Z,13.19
2019-03-09T10:07:42.123Z,13.14
2019-03-09T10:10:14.911Z,13.29
2019-03-09T10:12:44.810Z,13.21
2019-03-09T10:15:23.056Z,13.15
2019-03-09T10:17:53.738Z,13.50
2019-03-09T10:20:26.314Z,13.45
2019-03-09T10:23:04.274Z,13.60
2019-03-09T10:25:31.721Z,13.52
2019-03-09T10:28:01.542Z,13.41
2019-03-09T10:30:32.528Z,13.47
2019-03-09T10:33:03.169Z,13.47
2019-03-09T10:36:11.619Z,13.38
2019-03-09T10:38:41.517Z,13.30
2019-03-09T10:41:11.284Z,13.15
2019-03-09T10:43:41.338Z,12.92
2019-03-09T10:46:12.274Z,12.95
2019-03-09T10:48:42.537Z,12.95
2019-03-09T10:51:11.965Z,13.14
2019-03-09T10:53:42.828Z,13.14
2019-03-09T10:56:12.755Z,13.53
2019-03-09T10:58:43.145Z,13.31
2019-03-09T11:01:19.310Z,13.48
2019-03-09T11:03:50.463Z,13.52
2019-03-09T11:06:20.986Z,13.33
2019-03-09T11:08:52.153Z,13.33
2019-03-09T11:11:22.862Z,13.41
2019-03-09T11:13:52.805Z,13.41
2019-03-09T11:16:23.532Z,13.54
2019-03-09T11:18:52.654Z,13.27
2019-03-09T11:21:25.321Z,13.28
2019-03-09T11:23:55.624Z,13.20
2019-03-09T11:26:26.144Z,13.65
2019-03-09T11:28:56.145Z,13.71
2019-03-09T11:31:38.590Z,13.91
2019-03-09T11:34:08.587Z,13.67
2019-03-09T11:36:39.033Z,13.73
2019-03-09T11:39:09.493Z,13.66
2019-03-09T11:41:38.759Z,13.69
2019-03-09T11:44:08.943Z,13.48
2019-03-09T11:46:39.331Z,13.64
2019-03-09T11:49:09.595Z,13.74
2019-03-09T11:51:38.847Z,13.74
2019-03-09T11:54:09.333Z,13.94
2019-03-09T11:56:39.167Z,13.99
2019-03-09T11:59:09.326Z,13.87
2019-03-09T12:01:43.898Z,13.98
2019-03-09T12:04:13.814Z,14.14
2019-03-09T12:06:43.674Z,13.83
2019-03-09T12:09:12.630Z,14.12
2019-03-09T12:11:45.767Z,13.95
2019-03-09T12:14:16.481Z,13.98
2019-03-09T12:16:47.344Z,13.74
2019-03-09T12:19:17.328Z,13.74
2019-03-09T12:21:47.023Z,13.50
2019-03-09T12:24:19.836Z,13.51
2019-03-09T12:26:49.974Z,13.62
2019-03-09T12:29:19.738Z,13.52
2019-03-09T12:31:50.754Z,13.33
2019-03-09T12:34:20.480Z,13.69
2019-03-09T12:36:50.558Z,13.45
2019-03-09T12:39:20.324Z,13.32
2019-03-09T12:42:02.611Z,13.32
2019-03-09T12:44:31.884Z,13.52
2019-03-09T12:47:18.944Z,13.42
2019-03-09T12:49:47.876Z,13.51
2019-03-09T12:52:18.330Z,13.56
2019-03-09T12:54:48.662Z,13.40
2019-03-09T12:57:41.744Z,13.59
2019-03-09T13:00:16.611Z,13.05
2019-03-09T13:02:48.314Z,13.39
2019-03-09T13:05:18.947Z,13.72
2019-03-09T13:07:49.109Z,13.93
2019-03-09T13:10:19.834Z,13.88
2019-03-09T13:13:32.647Z,14.27
2019-03-09T13:16:02.861Z,14.14
2019-03-09T13:18:32.953Z,14.58
2019-03-09T13:21:03.069Z,14.33
2019-03-09T13:23:33.931Z,14.12
2019-03-09T13:26:04.124Z,14.30
2019-03-09T13:28:34.311Z,14.50
2019-03-09T13:31:04.919Z,14.46
2019-03-09T13:33:35.024Z,15.02
2019-03-09T13:36:08.164Z,15.04
2019-03-09T13:38:39.015Z,14.63
2019-03-09T13:41:09.590Z,14.68
2019-03-09T13:43:38.814Z,14.75
2019-03-09T13:46:15.581Z,15.01
2019-03-09T13:48:45.886Z,15.14
2019-03-09T13:51:16.443Z,15.07
2019-03-09T13:53:46.888Z,14.83
2019-03-09T13:56:17.043Z,14.53
2019-03-09T13:58:49.598Z,14.31
2019-03-09T14:01:18.893Z,14.12
2019-03-09T14:04:19.787Z,14.33
2019-03-09T14:06:50.334Z,14.13
2019-03-09T14:09:20.847Z,14.13
2019-03-09T14:12:28.303Z,14.12
2019-03-09T14:15:02.321Z,14.15
2019-03-09T14:17:32.600Z,14.21
2019-03-09T14:20:02.517Z,14.22
2019-03-09T14:22:32.812Z,13.76
2019-03-09T14:25:08.715Z,13.76
2019-03-09T14:27:38.838Z,13.70
2019-03-09T14:30:13.632Z,13.23
2019-03-09T14:32:42.477Z,12.60
2019-03-09T14:35:12.482Z,12.38
2019-03-09T14:37:42.496Z,12.41
2019-03-09T14:40:13.878Z,12.46
2019-03-09T14:43:18.115Z,12.46
2019-03-09T14:45:51.792Z,12.62
2019-03-09T14:48:21.576Z,12.62
2019-03-09T14:50:51.694Z,12.71
2019-03-09T14:53:22.044Z,12.71
2019-03-09T14:55:52.054Z,12.59
2019-03-09T14:58:22.574Z,12.50
2019-03-09T15:00:52.081Z,12.57
2019-03-09T15:03:25.660Z,12.44
2019-03-09T15:05:54.707Z,12.30
2019-03-09T15:08:25.318Z,12.16
2019-03-09T15:11:00.529Z,12.50
2019-03-09T15:13:30.911Z,13.08
2019-03-09T15:16:00.830Z,13.08
2019-03-09T15:18:31.102Z,13.16
2019-03-09T15:21:01.055Z,13.26
2019-03-09T15:23:31.133Z,13.26
2019-03-09T15:26:04.851Z,13.52
2019-03-09T15:28:35.464Z,13.78
2019-03-09T15:31:05.588Z,13.73
2019-03-09T15:33:35.728Z,13.60
2019-03-09T15:36:06.545Z,13.76
2019-03-09T15:38:36.818Z,13.03
2019-03-09T15:41:10.542Z,13.03
2019-03-09T15:43:40.526Z,13.10
2019-03-09T15:47:19.741Z,13.17
2019-03-09T15:58:24.096Z,13.47
2019-03-09T16:00:54.541Z,13.56
2019-03-09T16:03:26.327Z,13.48
2019-03-09T16:05:56.524Z,13.32
2019-03-09T16:08:27.309Z,13.47
2019-03-09T16:10:58.340Z,13.47
2019-03-09T16:13:28.595Z,13.26
2019-03-09T16:15:58.143Z,13.44
2019-03-09T16:18:32.707Z,12.97
2019-03-09T16:21:04.484Z,12.96
2019-03-09T16:23:34.847Z,13.16
2019-03-09T16:26:04.964Z,13.16
2019-03-09T16:28:34.955Z,13.29
2019-03-09T16:31:09.106Z,12.94
2019-03-09T16:33:39.142Z,13.08
2019-03-09T16:36:09.055Z,13.14
2019-03-09T16:38:39.957Z,12.84
2019-03-09T16:41:10.121Z,13.29
2019-03-09T16:43:40.832Z,13.16
2019-03-09T16:46:10.835Z,12.80
2019-03-09T16:48:43.438Z,12.80
2019-03-09T16:51:13.506Z,12.50
2019-03-09T16:53:43.472Z,12.51
2019-03-09T16:56:13.314Z,12.40
2019-03-09T16:58:43.470Z,12.40
2019-03-09T17:01:13.522Z,12.51
2019-03-09T17:03:43.490Z,12.34
2019-03-09T17:06:13.454Z,12.29
2019-03-09T17:08:43.937Z,12.29
2019-03-09T17:11:13.886Z,12.34
2019-03-09T17:13:43.845Z,12.27
2019-03-09T17:16:15.881Z,12.46
2019-03-09T17:18:45.845Z,12.30
2019-03-09T17:21:18.554Z,12.37
2019-03-09T17:23:51.511Z,12.20
2019-03-09T17:26:20.945Z,12.20
2019-03-09T17:28:57.048Z,12.05
2019-03-09T17:31:27.121Z,12.00
2019-03-09T17:33:57.307Z,11.95
2019-03-09T17:36:27.501Z,12.16
2019-03-09T17:38:57.599Z,11.87
2019-03-09T17:41:27.271Z,11.87
2019-03-09T17:43:57.481Z,11.87
2019-03-09T17:46:26.581Z,11.69
2019-03-09T17:48:56.599Z,12.13
2019-03-09T17:51:25.687Z,12.13
2019-03-09T17:53:55.898Z,12.04
2019-03-09T17:56:26.147Z,11.87
2019-03-09T17:58:56.915Z,11.90
2019-03-09T18:01:26.908Z,12.17
2019-03-09T18:03:57.308Z,12.11
2019-03-09T18:06:27.530Z,12.23
2019-03-09T18:08:56.508Z,12.23
2019-03-09T18:11:25.918Z,12.31
2019-03-09T18:13:55.878Z,12.34
2019-03-09T18:16:25.671Z,12.32
2019-03-09T18:18:55.856Z,12.42
2019-03-09T18:21:25.890Z,12.33
2019-03-09T18:23:55.641Z,12.42
2019-03-09T18:26:38.737Z,12.25
2019-03-09T18:29:09.151Z,12.44
2019-03-09T18:31:39.873Z,12.43
2019-03-09T18:34:09.687Z,12.44
2019-03-09T18:36:38.869Z,12.12
2019-03-09T18:39:09.383Z,12.07
2019-03-09T18:41:40.703Z,12.06
2019-03-09T18:44:11.926Z,12.16
2019-03-09T18:46:42.329Z,12.12
2019-03-09T18:49:12.065Z,11.87
2019-03-09T18:51:42.819Z,12.29
2019-03-09T18:54:13.307Z,12.67
2019-03-09T18:56:44.210Z,12.40
2019-03-09T18:59:15.415Z,12.32
2019-03-09T19:01:46.711Z,12.35
2019-03-09T19:04:17.530Z,12.19
2019-03-09T19:06:47.695Z,12.33
2019-03-09T19:09:18.882Z,12.33
2019-03-09T19:11:49.368Z,12.39
2019-03-09T19:14:20.327Z,12.24
2019-03-09T19:16:51.478Z,12.24
2019-03-09T19:19:21.519Z,12.09
2019-03-09T19:21:51.525Z,12.38
2019-03-09T19:24:20.803Z,12.42
2019-03-09T19:26:51.039Z,12.42
2019-03-09T19:29:42.819Z,12.35
2019-03-09T19:32:13.298Z,12.29
2019-03-09T19:34:44.311Z,12.26
2019-03-09T19:37:16.905Z,12.30
2019-03-09T19:39:47.102Z,12.30
2019-03-09T19:42:17.832Z,12.40
2019-03-09T19:44:48.041Z,12.50
2019-03-09T19:47:58.979Z,12.54
2019-03-09T19:50:32.835Z,12.40
2019-03-09T19:53:11.137Z,12.28
2019-03-09T19:55:41.771Z,12.52
2019-03-09T19:58:11.869Z,12.42
2019-03-09T20:00:42.605Z,12.46
2019-03-09T20:03:12.291Z,12.75
2019-03-09T20:05:43.315Z,12.57
2019-03-09T20:08:14.082Z,12.63
2019-03-09T20:10:45.318Z,12.61
2019-03-09T20:13:16.046Z,12.40
2019-03-09T20:15:46.540Z,12.40
2019-03-09T20:18:16.723Z,12.35
2019-03-09T20:20:48.317Z,12.54
2019-03-09T20:23:18.762Z,12.64
2019-03-09T20:25:49.238Z,12.49
2019-03-09T20:28:19.115Z,12.56
2019-03-09T20:30:49.095Z,12.60
2019-03-09T20:33:20.932Z,12.55
2019-03-09T20:36:40.959Z,12.47
2019-03-09T20:40:03.715Z,12.79
2019-03-09T20:42:59.835Z,12.77
2019-03-09T20:46:10.878Z,12.64
2019-03-09T20:49:34.361Z,12.66
2019-03-09T20:53:09.104Z,12.42
2019-03-09T20:56:23.665Z,12.63
2019-03-09T20:59:51.173Z,12.49
2019-03-09T21:03:24.606Z,12.43
2019-03-09T21:06:22.114Z,12.43
2019-03-09T21:09:35.365Z,12.40
2019-03-09T21:13:07.910Z,12.49
2019-03-09T21:16:24.373Z,12.60
2019-03-09T21:19:51.145Z,12.63
2019-03-09T21:23:11.949Z,12.60
2019-03-09T21:26:33.166Z,12.48
2019-03-09T21:29:55.336Z,12.50
2019-03-09T21:33:07.602Z,12.36
2019-03-09T21:36:10.764Z,12.45
2019-03-09T21:39:34.777Z,12.60
2019-03-09T21:42:59.074Z,12.42
2019-03-09T21:46:13.802Z,12.42
2019-03-09T21:49:42.482Z,12.62
2019-03-09T21:53:05.642Z,12.31
2019-03-09T21:56:27.339Z,12.31
2019-03-09T21:59:18.266Z,12.57
2019-03-09T22:02:05.982Z,12.26
2019-03-09T22:05:19.812Z,12.26
2019-03-09T22:08:21.639Z,12.46
2019-03-09T22:11:45.240Z,12.44
2019-03-09T22:14:28.292Z,12.52
2019-03-09T22:16:58.168Z,12.26
2019-03-09T22:19:28.500Z,12.32
2019-03-09T22:21:58.998Z,12.28
2019-03-09T22:26:17.387Z,12.12
2019-03-09T22:28:48.570Z,12.09
2019-03-09T22:31:19.381Z,12.21
2019-03-09T22:33:50.074Z,12.01
2019-03-09T22:36:20.339Z,12.01
2019-03-09T22:38:50.458Z,11.97
2019-03-09T22:41:20.846Z,12.12
2019-03-09T22:43:51.130Z,12.12
2019-03-09T22:46:21.802Z,12.25
2019-03-09T22:48:52.465Z,12.17
2019-03-09T22:51:23.844Z,12.19
2019-03-09T22:53:54.122Z,12.19
2019-03-09T22:56:24.145Z,12.37
2019-03-09T22:58:54.593Z,12.31
2019-03-09T23:01:25.042Z,12.37
2019-03-09T23:03:58.537Z,12.08
2019-03-09T23:06:28.987Z,11.88
2019-03-09T23:08:59.794Z,11.88
2019-03-09T23:11:29.900Z,12.40
2019-03-09T23:14:00.574Z,12.47
2019-03-09T23:16:31.092Z,12.28
2019-03-09T23:19:01.803Z,12.30
2019-03-09T23:21:32.484Z,12.36
2019-03-09T23:24:03.164Z,12.19
2019-03-09T23:26:33.787Z,12.19
2019-03-09T23:29:04.329Z,12.54
2019-03-09T23:31:34.140Z,12.50
2019-03-09T23:34:04.683Z,12.50
2019-03-09T23:36:35.311Z,12.34
2019-03-09T23:39:07.541Z,12.41
2019-03-09T23:41:38.170Z,12.36
2019-03-09T23:44:08.655Z,12.48
2019-03-09T23:46:38.856Z,12.50
2019-03-09T23:49:09.577Z,12.47
2019-03-09T23:51:38.680Z,12.35
2019-03-09T23:54:09.157Z,12.35
2019-03-09T23:56:39.153Z,12.54
2019-03-09T23:59:09.431Z,12.68
